Terminal Aerodrome Forecast
Issued by NWS

Home | Current Version | Previous Version | Text Only | Print | Product List | Glossary On
Versions: 1 2 3 4 5 6 7 8 9 10 11 12
462
FTUS43 KEAX 272320
TAFMKC
TAF
KMKC 272320Z 2800/2824 28004KT P6SM SKC
     FM280900 34007KT P6SM SKC
     FM281700 36011KT P6SM FEW040=

USA.gov is the U.S. government's official web portal to all federal, state and local government web resources and services.